sensor_id;sensor_type;location;lat;lon;timestamp;pressure;altitude;pressure_sealevel;temperature;humidity
79705;BME280;69940;53.120;8.764;2023-07-20T00:01:18;101358.00;;;17.56;72.34
79705;BME280;69940;53.120;8.764;2023-07-20T00:03:56;101357.00;;;17.57;72.21
79705;BME280;69940;53.120;8.764;2023-07-20T00:06:18;101355.00;;;17.58;72.07
79705;BME280;69940;53.120;8.764;2023-07-20T00:08:48;101355.00;;;17.59;72.24
79705;BME280;69940;53.120;8.764;2023-07-20T00:11:18;101353.00;;;17.60;72.67
79705;BME280;69940;53.120;8.764;2023-07-20T00:13:48;101352.00;;;17.61;72.28
79705;BME280;69940;53.120;8.764;2023-07-20T00:16:18;101352.00;;;17.62;72.20
79705;BME280;69940;53.120;8.764;2023-07-20T00:18:48;101350.00;;;17.63;72.25
79705;BME280;69940;53.120;8.764;2023-07-20T00:21:18;101348.00;;;17.63;72.16
79705;BME280;69940;53.120;8.764;2023-07-20T00:23:48;101347.00;;;17.64;72.21
79705;BME280;69940;53.120;8.764;2023-07-20T00:26:18;101346.00;;;17.64;72.34
79705;BME280;69940;53.120;8.764;2023-07-20T00:28:50;101346.00;;;17.65;72.20
79705;BME280;69940;53.120;8.764;2023-07-20T00:31:18;101349.00;;;17.65;72.34
79705;BME280;69940;53.120;8.764;2023-07-20T00:33:49;101351.00;;;17.65;72.23
79705;BME280;69940;53.120;8.764;2023-07-20T00:36:18;101351.00;;;17.65;72.29
79705;BME280;69940;53.120;8.764;2023-07-20T00:38:48;101352.00;;;17.64;72.38
79705;BME280;69940;53.120;8.764;2023-07-20T00:41:18;101354.00;;;17.62;72.77
79705;BME280;69940;53.120;8.764;2023-07-20T00:43:48;101355.00;;;17.60;73.09
79705;BME280;69940;53.120;8.764;2023-07-20T00:46:18;101356.00;;;17.57;73.63
79705;BME280;69940;53.120;8.764;2023-07-20T00:48:48;101355.00;;;17.54;74.05
79705;BME280;69940;53.120;8.764;2023-07-20T00:51:18;101354.00;;;17.51;74.54
79705;BME280;69940;53.120;8.764;2023-07-20T00:53:48;101354.00;;;17.48;74.80
79705;BME280;69940;53.120;8.764;2023-07-20T00:56:18;101354.00;;;17.45;75.11
79705;BME280;69940;53.120;8.764;2023-07-20T00:58:48;101353.00;;;17.41;75.30
79705;BME280;69940;53.120;8.764;2023-07-20T01:01:18;101352.00;;;17.37;75.76
79705;BME280;69940;53.120;8.764;2023-07-20T01:03:48;101352.00;;;17.33;76.13
79705;BME280;69940;53.120;8.764;2023-07-20T01:06:36;101352.00;;;17.29;76.50
79705;BME280;69940;53.120;8.764;2023-07-20T01:09:15;101352.00;;;17.26;76.70
79705;BME280;69940;53.120;8.764;2023-07-20T01:13:49;101351.00;;;17.20;77.07
79705;BME280;69940;53.120;8.764;2023-07-20T01:16:18;101350.00;;;17.19;77.16
79705;BME280;69940;53.120;8.764;2023-07-20T01:18:48;101349.00;;;17.18;77.59
79705;BME280;69940;53.120;8.764;2023-07-20T01:21:28;101348.00;;;17.17;77.72
79705;BME280;69940;53.120;8.764;2023-07-20T01:26:45;101349.00;;;17.16;77.51
79705;BME280;69940;53.120;8.764;2023-07-20T01:31:25;101352.00;;;17.15;77.69
79705;BME280;69940;53.120;8.764;2023-07-20T01:33:50;101353.00;;;17.14;77.73
79705;BME280;69940;53.120;8.764;2023-07-20T01:36:19;101354.00;;;17.12;77.88
79705;BME280;69940;53.120;8.764;2023-07-20T01:38:49;101353.00;;;17.10;78.26
79705;BME280;69940;53.120;8.764;2023-07-20T01:41:18;101353.00;;;17.08;78.19
79705;BME280;69940;53.120;8.764;2023-07-20T01:43:48;101353.00;;;17.06;78.17
79705;BME280;69940;53.120;8.764;2023-07-20T01:46:18;101351.00;;;17.04;78.29
79705;BME280;69940;53.120;8.764;2023-07-20T01:48:48;101349.00;;;17.02;78.01
79705;BME280;69940;53.120;8.764;2023-07-20T01:51:21;101348.00;;;17.00;77.99
79705;BME280;69940;53.120;8.764;2023-07-20T01:53:48;101347.00;;;16.99;78.09
79705;BME280;69940;53.120;8.764;2023-07-20T01:56:18;101346.00;;;16.98;77.58
79705;BME280;69940;53.120;8.764;2023-07-20T01:58:48;101347.00;;;16.98;77.87
79705;BME280;69940;53.120;8.764;2023-07-20T02:01:18;101347.00;;;16.97;78.13
79705;BME280;69940;53.120;8.764;2023-07-20T02:03:48;101347.00;;;16.96;78.23
79705;BME280;69940;53.120;8.764;2023-07-20T02:06:18;101348.00;;;16.95;78.41
79705;BME280;69940;53.120;8.764;2023-07-20T02:08:48;101350.00;;;16.93;78.54
79705;BME280;69940;53.120;8.764;2023-07-20T02:11:18;101351.00;;;16.92;78.66
79705;BME280;69940;53.120;8.764;2023-07-20T02:13:48;101350.00;;;16.91;78.94
79705;BME280;69940;53.120;8.764;2023-07-20T02:16:18;101350.00;;;16.89;78.52
79705;BME280;69940;53.120;8.764;2023-07-20T02:18:48;101347.00;;;16.87;77.97
79705;BME280;69940;53.120;8.764;2023-07-20T02:21:18;101343.00;;;16.84;77.73
79705;BME280;69940;53.120;8.764;2023-07-20T02:23:48;101340.00;;;16.81;77.87
79705;BME280;69940;53.120;8.764;2023-07-20T02:26:18;101338.00;;;16.77;77.69
79705;BME280;69940;53.120;8.764;2023-07-20T02:28:48;101335.00;;;16.75;77.37
79705;BME280;69940;53.120;8.764;2023-07-20T02:31:18;101334.00;;;16.71;77.29
79705;BME280;69940;53.120;8.764;2023-07-20T02:33:48;101334.00;;;16.69;77.10
79705;BME280;69940;53.120;8.764;2023-07-20T02:36:18;101334.00;;;16.67;76.93
79705;BME280;69940;53.120;8.764;2023-07-20T02:38:48;101334.00;;;16.64;77.39
79705;BME280;69940;53.120;8.764;2023-07-20T02:41:18;101336.00;;;16.62;77.42
79705;BME280;69940;53.120;8.764;2023-07-20T02:43:48;101337.00;;;16.61;77.37
79705;BME280;69940;53.120;8.764;2023-07-20T02:46:18;101339.00;;;16.60;77.57
79705;BME280;69940;53.120;8.764;2023-07-20T02:48:48;101341.00;;;16.59;77.98
79705;BME280;69940;53.120;8.764;2023-07-20T02:51:18;101342.00;;;16.58;78.15
79705;BME280;69940;53.120;8.764;2023-07-20T02:53:48;101343.00;;;16.58;78.67
79705;BME280;69940;53.120;8.764;2023-07-20T02:56:18;101344.00;;;16.58;79.05
79705;BME280;69940;53.120;8.764;2023-07-20T02:58:48;101346.00;;;16.58;79.22
79705;BME280;69940;53.120;8.764;2023-07-20T03:01:18;101348.00;;;16.58;79.41
79705;BME280;69940;53.120;8.764;2023-07-20T03:03:48;101347.00;;;16.59;79.73
79705;BME280;69940;53.120;8.764;2023-07-20T03:06:18;101346.00;;;16.60;79.86
79705;BME280;69940;53.120;8.764;2023-07-20T03:08:53;101345.00;;;16.63;79.63
79705;BME280;69940;53.120;8.764;2023-07-20T03:11:19;101345.00;;;16.66;79.63
79705;BME280;69940;53.120;8.764;2023-07-20T03:13:48;101346.00;;;16.69;79.49
79705;BME280;69940;53.120;8.764;2023-07-20T03:16:19;101346.00;;;16.71;79.57
79705;BME280;69940;53.120;8.764;2023-07-20T03:18:48;101346.00;;;16.73;79.63
79705;BME280;69940;53.120;8.764;2023-07-20T03:21:18;101348.00;;;16.76;79.35
79705;BME280;69940;53.120;8.764;2023-07-20T03:23:48;101348.00;;;16.78;79.10
79705;BME280;69940;53.120;8.764;2023-07-20T03:26:19;101348.00;;;16.79;79.06
79705;BME280;69940;53.120;8.764;2023-07-20T03:28:48;101348.00;;;16.80;79.13
79705;BME280;69940;53.120;8.764;2023-07-20T03:31:18;101349.00;;;16.80;79.30
79705;BME280;69940;53.120;8.764;2023-07-20T03:33:48;101348.00;;;16.79;79.52
79705;BME280;69940;53.120;8.764;2023-07-20T03:36:18;101349.00;;;16.78;79.67
79705;BME280;69940;53.120;8.764;2023-07-20T03:38:48;101351.00;;;16.77;79.74
79705;BME280;69940;53.120;8.764;2023-07-20T03:41:22;101353.00;;;16.77;79.57
79705;BME280;69940;53.120;8.764;2023-07-20T03:43:48;101355.00;;;16.77;79.48
79705;BME280;69940;53.120;8.764;2023-07-20T03:46:18;101359.00;;;16.77;79.50
79705;BME280;69940;53.120;8.764;2023-07-20T03:48:48;101361.00;;;16.77;79.23
79705;BME280;69940;53.120;8.764;2023-07-20T03:51:18;101361.00;;;16.78;79.26
79705;BME280;69940;53.120;8.764;2023-07-20T03:53:48;101362.00;;;16.78;79.37
79705;BME280;69940;53.120;8.764;2023-07-20T03:56:18;101362.00;;;16.79;79.62
79705;BME280;69940;53.120;8.764;2023-07-20T03:58:48;101364.00;;;16.79;79.63
79705;BME280;69940;53.120;8.764;2023-07-20T04:01:18;101366.00;;;16.80;79.65
79705;BME280;69940;53.120;8.764;2023-07-20T04:03:48;101369.00;;;16.80;79.62
79705;BME280;69940;53.120;8.764;2023-07-20T04:06:18;101371.00;;;16.81;79.40
79705;BME280;69940;53.120;8.764;2023-07-20T04:08:48;101371.00;;;16.82;79.32
79705;BME280;69940;53.120;8.764;2023-07-20T04:11:18;101372.00;;;16.83;79.30
79705;BME280;69940;53.120;8.764;2023-07-20T04:13:48;101372.00;;;16.84;79.06
79705;BME280;69940;53.120;8.764;2023-07-20T04:16:20;101372.00;;;16.84;78.81
79705;BME280;69940;53.120;8.764;2023-07-20T04:18:48;101372.00;;;16.85;78.76
79705;BME280;69940;53.120;8.764;2023-07-20T04:21:18;101374.00;;;16.86;78.71
79705;BME280;69940;53.120;8.764;2023-07-20T04:23:48;101375.00;;;16.86;78.58
79705;BME280;69940;53.120;8.764;2023-07-20T04:26:18;101377.00;;;16.85;78.74
79705;BME280;69940;53.120;8.764;2023-07-20T04:28:51;101379.00;;;16.83;78.63
79705;BME280;69940;53.120;8.764;2023-07-20T04:31:18;101380.00;;;16.82;78.53
79705;BME280;69940;53.120;8.764;2023-07-20T04:33:48;101381.00;;;16.82;78.41
79705;BME280;69940;53.120;8.764;2023-07-20T04:36:20;101382.00;;;16.82;78.48
79705;BME280;69940;53.120;8.764;2023-07-20T04:38:48;101384.00;;;16.82;78.39
79705;BME280;69940;53.120;8.764;2023-07-20T04:41:18;101385.00;;;16.83;78.33
79705;BME280;69940;53.120;8.764;2023-07-20T04:43:48;101386.00;;;16.83;78.25
79705;BME280;69940;53.120;8.764;2023-07-20T04:46:19;101388.00;;;16.84;78.36
79705;BME280;69940;53.120;8.764;2023-07-20T04:48:48;101388.00;;;16.84;78.43
79705;BME280;69940;53.120;8.764;2023-07-20T04:51:23;101388.00;;;16.84;78.20
79705;BME280;69940;53.120;8.764;2023-07-20T04:53:48;101390.00;;;16.85;78.34
79705;BME280;69940;53.120;8.764;2023-07-20T04:56:18;101391.00;;;16.84;78.22
79705;BME280;69940;53.120;8.764;2023-07-20T04:58:48;101393.00;;;16.84;78.44
79705;BME280;69940;53.120;8.764;2023-07-20T05:01:18;101393.00;;;16.83;78.34
79705;BME280;69940;53.120;8.764;2023-07-20T05:03:48;101394.00;;;16.83;78.30
79705;BME280;69940;53.120;8.764;2023-07-20T05:06:19;101395.00;;;16.84;78.13
79705;BME280;69940;53.120;8.764;2023-07-20T05:08:48;101396.00;;;16.84;78.10
79705;BME280;69940;53.120;8.764;2023-07-20T05:11:18;101396.00;;;16.84;78.38
79705;BME280;69940;53.120;8.764;2023-07-20T05:13:48;101396.00;;;16.84;78.14
79705;BME280;69940;53.120;8.764;2023-07-20T05:16:18;101396.00;;;16.85;77.91
79705;BME280;69940;53.120;8.764;2023-07-20T05:18:48;101394.00;;;16.86;77.79
79705;BME280;69940;53.120;8.764;2023-07-20T05:21:18;101394.00;;;16.86;77.76
79705;BME280;69940;53.120;8.764;2023-07-20T05:23:48;101395.00;;;16.86;77.75
79705;BME280;69940;53.120;8.764;2023-07-20T05:26:18;101397.00;;;16.86;77.71
79705;BME280;69940;53.120;8.764;2023-07-20T05:28:48;101400.00;;;16.85;77.61
79705;BME280;69940;53.120;8.764;2023-07-20T05:31:18;101403.00;;;16.85;77.77
79705;BME280;69940;53.120;8.764;2023-07-20T05:33:48;101405.00;;;16.86;77.78
79705;BME280;69940;53.120;8.764;2023-07-20T05:36:18;101407.00;;;16.86;77.51
79705;BME280;69940;53.120;8.764;2023-07-20T05:38:49;101409.00;;;16.87;77.35
79705;BME280;69940;53.120;8.764;2023-07-20T05:41:18;101410.00;;;16.88;76.87
79705;BME280;69940;53.120;8.764;2023-07-20T05:43:48;101411.00;;;16.89;76.78
79705;BME280;69940;53.120;8.764;2023-07-20T05:46:18;101411.00;;;16.90;76.72
79705;BME280;69940;53.120;8.764;2023-07-20T05:48:49;101411.00;;;16.92;76.74
79705;BME280;69940;53.120;8.764;2023-07-20T05:51:18;101411.00;;;16.93;76.72
79705;BME280;69940;53.120;8.764;2023-07-20T05:53:48;101411.00;;;16.95;76.18
79705;BME280;69940;53.120;8.764;2023-07-20T05:56:18;101413.00;;;16.97;75.69
79705;BME280;69940;53.120;8.764;2023-07-20T05:58:48;101414.00;;;16.99;75.70
79705;BME280;69940;53.120;8.764;2023-07-20T06:01:19;101416.00;;;17.00;74.64
79705;BME280;69940;53.120;8.764;2023-07-20T06:03:48;101417.00;;;17.02;74.72
79705;BME280;69940;53.120;8.764;2023-07-20T06:06:18;101418.00;;;17.04;74.21
79705;BME280;69940;53.120;8.764;2023-07-20T06:08:48;101419.00;;;17.06;74.36
79705;BME280;69940;53.120;8.764;2023-07-20T06:11:19;101420.00;;;17.08;74.09
79705;BME280;69940;53.120;8.764;2023-07-20T06:13:48;101422.00;;;17.11;73.54
79705;BME280;69940;53.120;8.764;2023-07-20T06:16:18;101423.00;;;17.13;73.23
79705;BME280;69940;53.120;8.764;2023-07-20T06:18:48;101424.00;;;17.16;73.44
79705;BME280;69940;53.120;8.764;2023-07-20T06:21:18;101427.00;;;17.18;73.39
79705;BME280;69940;53.120;8.764;2023-07-20T06:23:48;101427.00;;;17.20;73.16
79705;BME280;69940;53.120;8.764;2023-07-20T06:26:18;101430.00;;;17.21;73.05
79705;BME280;69940;53.120;8.764;2023-07-20T06:28:49;101430.00;;;17.22;73.00
79705;BME280;69940;53.120;8.764;2023-07-20T06:31:18;101431.00;;;17.24;73.15
79705;BME280;69940;53.120;8.764;2023-07-20T06:33:48;101432.00;;;17.26;73.38
79705;BME280;69940;53.120;8.764;2023-07-20T06:36:18;101434.00;;;17.29;73.23
79705;BME280;69940;53.120;8.764;2023-07-20T06:38:48;101435.00;;;17.31;72.93
79705;BME280;69940;53.120;8.764;2023-07-20T06:41:19;101437.00;;;17.32;72.73
79705;BME280;69940;53.120;8.764;2023-07-20T06:43:48;101437.00;;;17.33;72.77
79705;BME280;69940;53.120;8.764;2023-07-20T06:46:18;101438.00;;;17.34;72.28
79705;BME280;69940;53.120;8.764;2023-07-20T06:48:48;101439.00;;;17.35;72.17
79705;BME280;69940;53.120;8.764;2023-07-20T06:51:18;101438.00;;;17.37;71.88
79705;BME280;69940;53.120;8.764;2023-07-20T06:53:48;101439.00;;;17.39;71.74
79705;BME280;69940;53.120;8.764;2023-07-20T06:56:18;101439.00;;;17.41;71.42
79705;BME280;69940;53.120;8.764;2023-07-20T06:58:48;101438.00;;;17.44;71.46
79705;BME280;69940;53.120;8.764;2023-07-20T07:01:18;101438.00;;;17.47;71.56
79705;BME280;69940;53.120;8.764;2023-07-20T07:03:48;101437.00;;;17.51;70.63
79705;BME280;69940;53.120;8.764;2023-07-20T07:06:18;101437.00;;;17.53;70.08
79705;BME280;69940;53.120;8.764;2023-07-20T07:08:48;101437.00;;;17.56;69.98
79705;BME280;69940;53.120;8.764;2023-07-20T07:11:18;101438.00;;;17.58;70.08
79705;BME280;69940;53.120;8.764;2023-07-20T07:13:51;101438.00;;;17.61;69.77
79705;BME280;69940;53.120;8.764;2023-07-20T07:16:20;101439.00;;;17.64;68.80
79705;BME280;69940;53.120;8.764;2023-07-20T07:18:50;101441.00;;;17.67;68.30
79705;BME280;69940;53.120;8.764;2023-07-20T07:21:18;101442.00;;;17.69;68.22
79705;BME280;69940;53.120;8.764;2023-07-20T07:23:48;101443.00;;;17.73;67.93
79705;BME280;69940;53.120;8.764;2023-07-20T07:26:19;101444.00;;;17.78;67.72
79705;BME280;69940;53.120;8.764;2023-07-20T07:28:48;101446.00;;;17.84;67.57
79705;BME280;69940;53.120;8.764;2023-07-20T07:31:18;101446.00;;;17.88;67.92
79705;BME280;69940;53.120;8.764;2023-07-20T07:33:48;101447.00;;;17.93;67.08
79705;BME280;69940;53.120;8.764;2023-07-20T07:36:18;101449.00;;;17.97;66.67
79705;BME280;69940;53.120;8.764;2023-07-20T07:38:48;101450.00;;;18.01;66.45
79705;BME280;69940;53.120;8.764;2023-07-20T07:41:18;101450.00;;;18.02;66.14
79705;BME280;69940;53.120;8.764;2023-07-20T07:43:48;101451.00;;;18.03;65.33
79705;BME280;69940;53.120;8.764;2023-07-20T07:46:18;101452.00;;;18.05;65.12
79705;BME280;69940;53.120;8.764;2023-07-20T07:48:48;101453.00;;;18.09;65.37
79705;BME280;69940;53.120;8.764;2023-07-20T07:51:19;101454.00;;;18.14;65.04
79705;BME280;69940;53.120;8.764;2023-07-20T07:53:50;101456.00;;;18.19;64.91
79705;BME280;69940;53.120;8.764;2023-07-20T07:56:23;101458.00;;;18.23;64.39
79705;BME280;69940;53.120;8.764;2023-07-20T07:58:49;101459.00;;;18.26;63.63
79705;BME280;69940;53.120;8.764;2023-07-20T08:01:19;101459.00;;;18.29;63.91
79705;BME280;69940;53.120;8.764;2023-07-20T08:03:48;101460.00;;;18.32;64.14
79705;BME280;69940;53.120;8.764;2023-07-20T08:06:18;101461.00;;;18.36;64.06
79705;BME280;69940;53.120;8.764;2023-07-20T08:08:48;101462.00;;;18.40;63.87
79705;BME280;69940;53.120;8.764;2023-07-20T08:11:18;101463.00;;;18.44;63.73
79705;BME280;69940;53.120;8.764;2023-07-20T08:13:48;101463.00;;;18.48;63.84
79705;BME280;69940;53.120;8.764;2023-07-20T08:16:18;101465.00;;;18.52;63.56
79705;BME280;69940;53.120;8.764;2023-07-20T08:18:48;101467.00;;;18.54;63.01
79705;BME280;69940;53.120;8.764;2023-07-20T08:21:18;101468.00;;;18.56;63.06
79705;BME280;69940;53.120;8.764;2023-07-20T08:23:48;101468.00;;;18.57;62.91
79705;BME280;69940;53.120;8.764;2023-07-20T08:26:18;101467.00;;;18.58;61.95
79705;BME280;69940;53.120;8.764;2023-07-20T08:28:48;101469.00;;;18.58;62.30
79705;BME280;69940;53.120;8.764;2023-07-20T08:31:18;101469.00;;;18.59;62.42
79705;BME280;69940;53.120;8.764;2023-07-20T08:33:49;101470.00;;;18.61;62.83
79705;BME280;69940;53.120;8.764;2023-07-20T08:36:18;101471.00;;;18.63;61.65
79705;BME280;69940;53.120;8.764;2023-07-20T08:38:49;101471.00;;;18.65;61.23
79705;BME280;69940;53.120;8.764;2023-07-20T08:41:18;101471.00;;;18.65;61.90
79705;BME280;69940;53.120;8.764;2023-07-20T08:43:49;101472.00;;;18.66;62.04
79705;BME280;69940;53.120;8.764;2023-07-20T08:46:18;101473.00;;;18.68;61.63
79705;BME280;69940;53.120;8.764;2023-07-20T08:48:49;101477.00;;;18.70;61.54
79705;BME280;69940;53.120;8.764;2023-07-20T08:51:19;101479.00;;;18.72;60.66
79705;BME280;69940;53.120;8.764;2023-07-20T08:53:50;101479.00;;;18.74;60.61
79705;BME280;69940;53.120;8.764;2023-07-20T08:56:20;101479.00;;;18.78;60.88
79705;BME280;69940;53.120;8.764;2023-07-20T08:58:48;101479.00;;;18.83;59.50
79705;BME280;69940;53.120;8.764;2023-07-20T09:01:21;101479.00;;;18.87;58.73
79705;BME280;69940;53.120;8.764;2023-07-20T09:03:48;101478.00;;;18.91;58.83
79705;BME280;69940;53.120;8.764;2023-07-20T09:06:18;101479.00;;;18.95;59.43
79705;BME280;69940;53.120;8.764;2023-07-20T09:08:48;101480.00;;;18.98;59.59
79705;BME280;69940;53.120;8.764;2023-07-20T09:11:18;101480.00;;;19.01;59.64
79705;BME280;69940;53.120;8.764;2023-07-20T09:14:08;101482.00;;;19.04;58.65
79705;BME280;69940;53.120;8.764;2023-07-20T09:16:18;101482.00;;;19.07;58.89
79705;BME280;69940;53.120;8.764;2023-07-20T09:18:48;101482.00;;;19.11;59.28
79705;BME280;69940;53.120;8.764;2023-07-20T09:21:18;101482.00;;;19.16;59.61
79705;BME280;69940;53.120;8.764;2023-07-20T09:23:56;101481.00;;;19.21;59.53
79705;BME280;69940;53.120;8.764;2023-07-20T09:26:18;101480.00;;;19.26;59.66
79705;BME280;69940;53.120;8.764;2023-07-20T09:28:54;101479.00;;;19.30;59.65
79705;BME280;69940;53.120;8.764;2023-07-20T09:31:19;101480.00;;;19.35;59.84
79705;BME280;69940;53.120;8.764;2023-07-20T09:33:51;101479.00;;;19.36;58.27
79705;BME280;69940;53.120;8.764;2023-07-20T09:36:19;101480.00;;;19.37;57.93
79705;BME280;69940;53.120;8.764;2023-07-20T09:38:48;101478.00;;;19.39;57.66
79705;BME280;69940;53.120;8.764;2023-07-20T09:41:20;101475.00;;;19.44;57.77
79705;BME280;69940;53.120;8.764;2023-07-20T09:43:49;101474.00;;;19.53;57.65
79705;BME280;69940;53.120;8.764;2023-07-20T09:46:20;101473.00;;;19.64;56.97
79705;BME280;69940;53.120;8.764;2023-07-20T09:48:52;101474.00;;;19.73;57.39
79705;BME280;69940;53.120;8.764;2023-07-20T09:51:18;101475.00;;;19.80;58.00
79705;BME280;69940;53.120;8.764;2023-07-20T09:53:48;101473.00;;;19.86;58.27
79705;BME280;69940;53.120;8.764;2023-07-20T09:56:21;101475.00;;;19.92;57.87
79705;BME280;69940;53.120;8.764;2023-07-20T09:58:48;101477.00;;;19.99;57.45
79705;BME280;69940;53.120;8.764;2023-07-20T10:01:20;101478.00;;;20.02;57.12
79705;BME280;69940;53.120;8.764;2023-07-20T10:03:51;101479.00;;;20.02;58.24
79705;BME280;69940;53.120;8.764;2023-07-20T10:06:20;101481.00;;;19.99;60.63
79705;BME280;69940;53.120;8.764;2023-07-20T10:08:50;101483.00;;;19.93;61.38
79705;BME280;69940;53.120;8.764;2023-07-20T10:11:18;101485.00;;;19.82;61.43
79705;BME280;69940;53.120;8.764;2023-07-20T10:13:51;101487.00;;;19.72;61.76
79705;BME280;69940;53.120;8.764;2023-07-20T10:16:23;101489.00;;;19.62;62.48
79705;BME280;69940;53.120;8.764;2023-07-20T10:19:03;101489.00;;;19.55;61.42
79705;BME280;69940;53.120;8.764;2023-07-20T10:21:20;101488.00;;;19.49;60.70
79705;BME280;69940;53.120;8.764;2023-07-20T10:23:48;101488.00;;;19.45;61.04
79705;BME280;69940;53.120;8.764;2023-07-20T10:26:18;101487.00;;;19.43;61.56
79705;BME280;69940;53.120;8.764;2023-07-20T10:28:49;101489.00;;;19.41;62.30
79705;BME280;69940;53.120;8.764;2023-07-20T10:31:19;101490.00;;;19.40;62.85
79705;BME280;69940;53.120;8.764;2023-07-20T10:33:51;101491.00;;;19.40;62.92
79705;BME280;69940;53.120;8.764;2023-07-20T10:36:26;101489.00;;;19.38;62.96
79705;BME280;69940;53.120;8.764;2023-07-20T10:38:54;101488.00;;;19.37;62.97
79705;BME280;69940;53.120;8.764;2023-07-20T10:41:28;101486.00;;;19.37;63.25
79705;BME280;69940;53.120;8.764;2023-07-20T10:43:48;101482.00;;;19.42;62.77
79705;BME280;69940;53.120;8.764;2023-07-20T10:49:01;101480.00;;;19.59;62.21
79705;BME280;69940;53.120;8.764;2023-07-20T10:51:20;101478.00;;;19.69;60.67
79705;BME280;69940;53.120;8.764;2023-07-20T10:53:48;101475.00;;;19.78;59.77
79705;BME280;69940;53.120;8.764;2023-07-20T10:56:22;101473.00;;;19.89;59.80
79705;BME280;69940;53.120;8.764;2023-07-20T10:58:48;101473.00;;;19.99;59.77
79705;BME280;69940;53.120;8.764;2023-07-20T11:01:18;101473.00;;;20.07;59.73
79705;BME280;69940;53.120;8.764;2023-07-20T11:03:50;101474.00;;;20.14;59.83
79705;BME280;69940;53.120;8.764;2023-07-20T11:06:29;101474.00;;;20.16;59.24
79705;BME280;69940;53.120;8.764;2023-07-20T11:08:50;101474.00;;;20.16;59.39
79705;BME280;69940;53.120;8.764;2023-07-20T11:11:28;101474.00;;;20.12;59.88
79705;BME280;69940;53.120;8.764;2023-07-20T11:14:02;101477.00;;;20.06;60.59
79705;BME280;69940;53.120;8.764;2023-07-20T11:16:18;101476.00;;;20.01;60.27
79705;BME280;69940;53.120;8.764;2023-07-20T11:18:48;101476.00;;;19.98;60.23
79705;BME280;69940;53.120;8.764;2023-07-20T11:21:18;101476.00;;;19.97;60.75
79705;BME280;69940;53.120;8.764;2023-07-20T11:23:48;101474.00;;;20.01;60.74
79705;BME280;69940;53.120;8.764;2023-07-20T11:26:20;101474.00;;;20.09;59.84
79705;BME280;69940;53.120;8.764;2023-07-20T11:28:50;101471.00;;;20.20;59.29
79705;BME280;69940;53.120;8.764;2023-07-20T11:31:18;101470.00;;;20.35;59.34
79705;BME280;69940;53.120;8.764;2023-07-20T11:33:48;101470.00;;;20.52;58.59
79705;BME280;69940;53.120;8.764;2023-07-20T11:36:19;101468.00;;;20.67;58.26
79705;BME280;69940;53.120;8.764;2023-07-20T11:38:48;101466.00;;;20.78;58.46
79705;BME280;69940;53.120;8.764;2023-07-20T11:41:18;101467.00;;;20.83;58.42
79705;BME280;69940;53.120;8.764;2023-07-20T11:43:48;101467.00;;;20.82;58.86
79705;BME280;69940;53.120;8.764;2023-07-20T11:46:18;101467.00;;;20.77;59.32
79705;BME280;69940;53.120;8.764;2023-07-20T11:48:48;101468.00;;;20.70;60.16
79705;BME280;69940;53.120;8.764;2023-07-20T11:51:18;101468.00;;;20.61;59.57
79705;BME280;69940;53.120;8.764;2023-07-20T11:53:48;101468.00;;;20.52;59.45
79705;BME280;69940;53.120;8.764;2023-07-20T11:56:18;101470.00;;;20.45;59.26
79705;BME280;69940;53.120;8.764;2023-07-20T11:58:48;101472.00;;;20.39;59.24
79705;BME280;69940;53.120;8.764;2023-07-20T12:01:18;101473.00;;;20.33;58.61
79705;BME280;69940;53.120;8.764;2023-07-20T12:03:48;101474.00;;;20.27;59.03
79705;BME280;69940;53.120;8.764;2023-07-20T12:06:18;101475.00;;;20.21;58.67
79705;BME280;69940;53.120;8.764;2023-07-20T12:08:48;101476.00;;;20.17;57.83
79705;BME280;69940;53.120;8.764;2023-07-20T12:11:36;101475.00;;;20.18;56.98
79705;BME280;69940;53.120;8.764;2023-07-20T12:13:48;101474.00;;;20.24;56.31
79705;BME280;69940;53.120;8.764;2023-07-20T12:16:19;101473.00;;;20.31;56.28
79705;BME280;69940;53.120;8.764;2023-07-20T12:18:48;101474.00;;;20.40;56.54
79705;BME280;69940;53.120;8.764;2023-07-20T12:21:19;101476.00;;;20.49;56.19
79705;BME280;69940;53.120;8.764;2023-07-20T12:23:48;101478.00;;;20.58;56.23
79705;BME280;69940;53.120;8.764;2023-07-20T12:26:19;101481.00;;;20.64;55.63
79705;BME280;69940;53.120;8.764;2023-07-20T12:28:49;101482.00;;;20.69;56.01
79705;BME280;69940;53.120;8.764;2023-07-20T12:31:18;101482.00;;;20.73;56.17
79705;BME280;69940;53.120;8.764;2023-07-20T12:33:49;101482.00;;;20.79;56.95
79705;BME280;69940;53.120;8.764;2023-07-20T12:36:18;101483.00;;;20.83;57.17
79705;BME280;69940;53.120;8.764;2023-07-20T12:38:49;101484.00;;;20.87;57.69
79705;BME280;69940;53.120;8.764;2023-07-20T12:41:19;101482.00;;;20.89;56.57
79705;BME280;69940;53.120;8.764;2023-07-20T12:43:48;101481.00;;;20.86;56.24
79705;BME280;69940;53.120;8.764;2023-07-20T12:46:18;101480.00;;;20.80;56.71
79705;BME280;69940;53.120;8.764;2023-07-20T12:48:48;101478.00;;;20.75;56.90
79705;BME280;69940;53.120;8.764;2023-07-20T12:51:19;101475.00;;;20.73;57.06
79705;BME280;69940;53.120;8.764;2023-07-20T12:53:48;101472.00;;;20.76;56.99
79705;BME280;69940;53.120;8.764;2023-07-20T12:56:18;101468.00;;;20.77;54.01
79705;BME280;69940;53.120;8.764;2023-07-20T12:58:50;101464.00;;;20.78;54.44
79705;BME280;69940;53.120;8.764;2023-07-20T13:01:18;101461.00;;;20.79;55.96
79705;BME280;69940;53.120;8.764;2023-07-20T13:03:49;101458.00;;;20.80;55.55
79705;BME280;69940;53.120;8.764;2023-07-20T13:06:18;101456.00;;;20.80;55.53
79705;BME280;69940;53.120;8.764;2023-07-20T13:11:21;101452.00;;;20.82;54.46
79705;BME280;69940;53.120;8.764;2023-07-20T13:13:48;101452.00;;;20.84;54.28
79705;BME280;69940;53.120;8.764;2023-07-20T13:16:18;101453.00;;;20.86;53.76